Time;durP1;ratioP1;P1;durP2;ratioP2;P2;SDS_P1;SDS_P2;PMS_P1;PMS_P2;Temp;Humidity;BMP_temperature;BMP_pressure;BME280_temperature;BME280_humidity;BME280_pressure;Samples;Min_cycle;Max_cycle;Signal;HPM_P1;HPM_P2
2022/10/16 00:01:49;;;;;;;5.23;4.73;;;;;;;;;;5050382;28;20229;-76
2022/10/16 00:04:16;;;;;;;7.20;4.20;;;;;;;;;;5051148;28;20202;-77
2022/10/16 00:06:44;;;;;;;5.27;4.70;;;;;;;;;;5051592;28;20232;-77
2022/10/16 00:09:11;;;;;;;4.30;3.90;;;;;;;;;;5050998;28;20692;-77
2022/10/16 00:11:39;;;;;;;5.37;4.63;;;;;;;;;;5051303;28;20220;-76
2022/10/16 00:14:08;;;;;;;5.80;4.60;;;;;;;;;;5051109;28;20284;-76
2022/10/16 00:16:35;;;;;;;5.37;4.53;;;;;;;;;;5051174;28;20221;-77
2022/10/16 00:19:01;;;;;;;4.67;4.27;;;;;;;;;;5050690;28;20209;-77
2022/10/16 00:21:30;;;;;;;4.73;4.33;;;;;;;;;;5051132;28;20198;-77
2022/10/16 00:24:00;;;;;;;6.03;4.53;;;;;;;;;;5051162;28;20283;-76
2022/10/16 00:26:27;;;;;;;6.23;4.67;;;;;;;;;;5050961;28;20293;-76
2022/10/16 00:28:54;;;;;;;4.77;4.33;;;;;;;;;;5050937;28;20205;-76
2022/10/16 00:31:22;;;;;;;4.17;3.87;;;;;;;;;;5050716;28;20206;-77
2022/10/16 00:33:50;;;;;;;5.23;4.73;;;;;;;;;;5050957;28;20201;-76
2022/10/16 00:36:19;;;;;;;4.57;4.17;;;;;;;;;;5050895;28;20204;-76
2022/10/16 00:38:46;;;;;;;6.57;5.13;;;;;;;;;;5050903;28;20556;-77
2022/10/16 00:41:16;;;;;;;5.67;3.80;;;;;;;;;;5050998;28;20206;-76
2022/10/16 00:43:43;;;;;;;5.77;3.80;;;;;;;;;;5050801;28;20205;-76
2022/10/16 00:46:15;;;;;;;6.57;4.90;;;;;;;;;;5050474;28;20202;-76
2022/10/16 00:48:44;;;;;;;5.67;5.13;;;;;;;;;;5037377;28;20210;-76
2022/10/16 00:51:11;;;;;;;4.80;4.40;;;;;;;;;;5050347;28;20908;-76
2022/10/16 00:53:37;;;;;;;4.83;4.43;;;;;;;;;;5050580;28;20213;-76
2022/10/16 00:56:05;;;;;;;5.43;4.30;;;;;;;;;;5050085;28;20635;-76
2022/10/16 00:58:33;;;;;;;5.97;4.60;;;;;;;;;;5050191;28;20224;-77
2022/10/16 01:00:59;;;;;;;4.90;4.37;;;;;;;;;;5050631;28;20210;-76
2022/10/16 01:03:30;;;;;;;4.67;3.80;;;;;;;;;;5050318;28;20758;-76
2022/10/16 01:06:10;;;;;;;4.60;4.20;;;;;;;;;;5050154;28;20209;-76
2022/10/16 01:08:45;;;;;;;5.07;4.37;;;;;;;;;;5050288;28;20201;-76
2022/10/16 01:11:18;;;;;;;6.33;4.30;;;;;;;;;;5050344;28;20225;-76
2022/10/16 01:13:51;;;;;;;4.57;4.10;;;;;;;;;;5049846;28;20289;-77
2022/10/16 01:16:23;;;;;;;5.57;4.67;;;;;;;;;;5050213;28;20202;-76
2022/10/16 01:18:54;;;;;;;5.27;4.77;;;;;;;;;;5050005;28;20225;-76
2022/10/16 01:21:23;;;;;;;4.90;4.50;;;;;;;;;;5050087;28;20210;-76
2022/10/16 01:24:00;;;;;;;4.73;4.33;;;;;;;;;;5049868;28;20680;-76
2022/10/16 01:26:56;;;;;;;4.30;3.90;;;;;;;;;;5050190;28;20699;-76
2022/10/16 01:29:28;;;;;;;4.97;4.47;;;;;;;;;;5049718;28;20194;-76
2022/10/16 01:32:00;;;;;;;5.40;4.40;;;;;;;;;;5049851;28;20209;-76
2022/10/16 01:34:34;;;;;;;5.13;4.63;;;;;;;;;;5050103;28;20198;-77
2022/10/16 01:37:04;;;;;;;4.57;4.17;;;;;;;;;;5050265;28;20237;-76
2022/10/16 01:39:33;;;;;;;5.37;4.87;;;;;;;;;;5049890;28;20267;-76
2022/10/16 01:42:04;;;;;;;6.40;4.90;;;;;;;;;;5049977;28;20275;-76
2022/10/16 01:44:33;;;;;;;4.63;4.23;;;;;;;;;;5049750;28;20209;-76
2022/10/16 01:47:00;;;;;;;5.97;4.70;;;;;;;;;;5050365;28;20206;-76
2022/10/16 01:49:31;;;;;;;6.57;5.03;;;;;;;;;;5049729;28;20197;-76
2022/10/16 01:51:59;;;;;;;8.03;4.10;;;;;;;;;;5049647;28;20205;-76
2022/10/16 01:54:29;;;;;;;6.77;4.53;;;;;;;;;;5049883;28;20207;-76
2022/10/16 01:56:56;;;;;;;8.00;4.50;;;;;;;;;;5049563;28;20676;-76
2022/10/16 01:59:25;;;;;;;4.60;3.83;;;;;;;;;;5049582;28;21310;-76
2022/10/16 02:01:55;;;;;;;5.43;4.37;;;;;;;;;;5049469;28;20735;-76
2022/10/16 02:04:25;;;;;;;5.83;4.17;;;;;;;;;;5049615;28;20198;-76
2022/10/16 02:06:53;;;;;;;6.27;4.50;;;;;;;;;;5050029;28;20206;-76
2022/10/16 02:09:20;;;;;;;5.73;4.43;;;;;;;;;;5049629;28;20581;-76
2022/10/16 02:11:48;;;;;;;8.77;5.30;;;;;;;;;;5049342;28;20209;-77
2022/10/16 02:14:16;;;;;;;7.57;4.70;;;;;;;;;;5049952;28;20640;-76
2022/10/16 02:16:45;;;;;;;4.83;4.10;;;;;;;;;;5050053;28;20213;-76
2022/10/16 02:19:14;;;;;;;4.70;4.37;;;;;;;;;;5049627;28;20719;-76
2022/10/16 02:21:44;;;;;;;4.80;4.00;;;;;;;;;;5049572;28;20210;-76
2022/10/16 02:24:16;;;;;;;4.50;4.10;;;;;;;;;;5049049;28;20256;-76
2022/10/16 02:26:49;;;;;;;6.20;4.90;;;;;;;;;;5053209;28;20701;-76
2022/10/16 02:29:19;;;;;;;5.17;4.43;;;;;;;;;;5052986;28;20205;-76
2022/10/16 02:31:49;;;;;;;5.93;4.50;;;;;;;;;;5053322;28;20206;-76
2022/10/16 02:34:17;;;;;;;7.20;4.73;;;;;;;;;;5052751;28;20198;-76
2022/10/16 02:36:45;;;;;;;3.87;3.57;;;;;;;;;;5053250;28;20202;-76
2022/10/16 02:39:12;;;;;;;4.40;4.00;;;;;;;;;;5053069;28;20226;-76
2022/10/16 02:41:39;;;;;;;3.93;3.50;;;;;;;;;;5052828;28;20244;-76
2022/10/16 02:44:06;;;;;;;6.93;4.30;;;;;;;;;;5052902;28;20260;-76
2022/10/16 02:46:32;;;;;;;4.23;3.83;;;;;;;;;;5052882;28;20641;-76
2022/10/16 02:48:59;;;;;;;4.73;4.17;;;;;;;;;;5052317;28;20296;-76
2022/10/16 02:51:27;;;;;;;4.60;4.20;;;;;;;;;;5052712;28;20206;-76
2022/10/16 02:53:54;;;;;;;10.47;4.00;;;;;;;;;;5052503;28;20229;-77
2022/10/16 02:56:21;;;;;;;4.50;3.70;;;;;;;;;;5052382;28;20232;-76
2022/10/16 02:58:48;;;;;;;4.10;3.70;;;;;;;;;;5052492;28;20229;-76
2022/10/16 03:01:16;;;;;;;6.23;3.67;;;;;;;;;;5052519;28;20316;-76
2022/10/16 03:03:43;;;;;;;3.37;3.07;;;;;;;;;;5052326;28;20202;-76
2022/10/16 03:06:10;;;;;;;4.30;3.70;;;;;;;;;;5052259;28;20255;-76
2022/10/16 03:08:38;;;;;;;3.83;3.40;;;;;;;;;;5052517;28;20209;-76
2022/10/16 03:11:04;;;;;;;3.73;3.40;;;;;;;;;;5052657;28;20206;-76
2022/10/16 03:13:31;;;;;;;6.90;3.67;;;;;;;;;;5052236;28;20267;-77
2022/10/16 03:15:58;;;;;;;3.90;3.50;;;;;;;;;;5052072;28;20202;-77
2022/10/16 03:18:25;;;;;;;5.27;3.63;;;;;;;;;;5052172;28;20287;-76
2022/10/16 03:20:51;;;;;;;4.20;3.80;;;;;;;;;;5051815;28;20681;-76
2022/10/16 03:23:18;;;;;;;5.87;5.07;;;;;;;;;;5052038;28;20205;-76
2022/10/16 03:25:46;;;;;;;4.53;4.13;;;;;;;;;;5052130;28;20256;-76
2022/10/16 03:28:13;;;;;;;6.20;3.97;;;;;;;;;;5052068;28;20209;-76
2022/10/16 03:30:40;;;;;;;12.73;10.33;;;;;;;;;;5051337;28;20279;-76
2022/10/16 03:33:07;;;;;;;13.07;11.23;;;;;;;;;;5052066;28;21160;-76
2022/10/16 03:35:34;;;;;;;10.07;7.67;;;;;;;;;;5051630;28;20244;-77
2022/10/16 03:38:01;;;;;;;6.97;6.30;;;;;;;;;;5052070;28;20662;-77
2022/10/16 03:40:27;;;;;;;10.53;6.83;;;;;;;;;;5051571;28;20746;-76
2022/10/16 03:42:57;;;;;;;9.67;8.77;;;;;;;;;;5051562;28;20202;-76
2022/10/16 03:45:24;;;;;;;12.13;10.20;;;;;;;;;;5051441;28;20202;-76
2022/10/16 03:47:51;;;;;;;15.27;11.10;;;;;;;;;;5051741;28;20645;-76
2022/10/16 03:50:17;;;;;;;17.43;12.47;;;;;;;;;;5051154;28;20205;-76
2022/10/16 03:52:44;;;;;;;14.73;10.93;;;;;;;;;;5051784;28;20210;-76
2022/10/16 03:55:11;;;;;;;8.33;7.47;;;;;;;;;;5051234;28;20561;-76
2022/10/16 03:57:38;;;;;;;11.40;7.33;;;;;;;;;;5051370;28;20704;-76
2022/10/16 04:00:07;;;;;;;11.30;6.80;;;;;;;;;;5050708;28;20288;-76
2022/10/16 04:02:34;;;;;;;9.10;5.60;;;;;;;;;;5051308;28;20670;-76
2022/10/16 04:05:00;;;;;;;10.53;5.63;;;;;;;;;;5051135;28;20266;-76
2022/10/16 04:07:28;;;;;;;5.17;4.47;;;;;;;;;;5051354;28;20198;-76
2022/10/16 04:09:56;;;;;;;5.57;4.97;;;;;;;;;;5051383;28;20202;-76
2022/10/16 04:12:23;;;;;;;6.97;5.40;;;;;;;;;;5050600;28;20202;-76
2022/10/16 04:14:50;;;;;;;6.90;4.47;;;;;;;;;;5051038;28;20202;-76
2022/10/16 04:17:18;;;;;;;5.00;4.43;;;;;;;;;;5051123;28;20220;-76
2022/10/16 04:19:45;;;;;;;6.00;5.00;;;;;;;;;;5050815;28;20230;-76
2022/10/16 04:22:12;;;;;;;4.87;4.37;;;;;;;;;;5051125;28;20208;-76
2022/10/16 04:24:38;;;;;;;6.33;4.90;;;;;;;;;;5050884;28;20204;-76
2022/10/16 04:27:05;;;;;;;6.43;4.87;;;;;;;;;;5051047;28;20209;-76
2022/10/16 04:29:32;;;;;;;13.20;6.60;;;;;;;;;;5051082;28;20202;-76
2022/10/16 04:31:59;;;;;;;27.53;15.10;;;;;;;;;;5050592;28;20247;-76
2022/10/16 04:34:27;;;;;;;17.47;11.33;;;;;;;;;;5050663;28;20202;-77
2022/10/16 04:36:53;;;;;;;7.57;6.77;;;;;;;;;;5050871;28;20247;-76
2022/10/16 04:39:20;;;;;;;7.70;5.47;;;;;;;;;;5050012;28;20229;-76
2022/10/16 04:41:47;;;;;;;6.53;5.20;;;;;;;;;;5050610;28;20209;-76
2022/10/16 04:44:14;;;;;;;7.23;5.33;;;;;;;;;;5050440;28;20213;-76
2022/10/16 04:46:41;;;;;;;7.07;5.57;;;;;;;;;;5050608;28;20210;-77
2022/10/16 04:49:07;;;;;;;19.23;11.33;;;;;;;;;;5050175;28;20198;-76
2022/10/16 04:51:36;;;;;;;15.77;11.13;;;;;;;;;;5047429;28;20692;-76
2022/10/16 04:54:02;;;;;;;8.37;7.20;;;;;;;;;;5049798;28;20229;-76
2022/10/16 04:56:29;;;;;;;8.07;6.60;;;;;;;;;;5050269;28;20198;-76
2022/10/16 04:58:56;;;;;;;7.87;6.37;;;;;;;;;;5049954;28;20238;-76
2022/10/16 05:01:23;;;;;;;15.50;10.07;;;;;;;;;;5050068;28;20761;-76
2022/10/16 05:03:50;;;;;;;7.63;5.27;;;;;;;;;;5050490;28;20198;-76
2022/10/16 05:06:16;;;;;;;6.47;4.93;;;;;;;;;;5050096;28;20279;-76
2022/10/16 05:08:44;;;;;;;7.13;5.80;;;;;;;;;;5049994;28;20198;-76
2022/10/16 05:11:11;;;;;;;10.40;7.47;;;;;;;;;;5049970;28;20701;-76
2022/10/16 05:13:38;;;;;;;11.73;8.10;;;;;;;;;;5049936;28;20608;-76
2022/10/16 05:16:05;;;;;;;7.67;6.30;;;;;;;;;;5049753;28;20209;-76
2022/10/16 05:18:32;;;;;;;16.13;10.47;;;;;;;;;;5049660;28;20226;-76
2022/10/16 05:20:59;;;;;;;8.77;6.33;;;;;;;;;;5050071;28;20247;-76
2022/10/16 05:23:26;;;;;;;4.73;4.33;;;;;;;;;;5049749;28;20263;-76
2022/10/16 05:25:58;;;;;;;8.57;5.33;;;;;;;;;;5038579;28;20198;-76
2022/10/16 05:28:25;;;;;;;5.67;5.17;;;;;;;;;;5050418;28;20297;-78
2022/10/16 05:30:52;;;;;;;12.40;7.77;;;;;;;;;;5036122;28;20216;-78
2022/10/16 05:33:21;;;;;;;5.77;4.67;;;;;;;;;;5050091;28;20209;-79
2022/10/16 05:35:47;;;;;;;5.43;4.30;;;;;;;;;;5035818;28;20216;-79
2022/10/16 05:38:14;;;;;;;6.20;5.60;;;;;;;;;;5049621;28;20221;-79
2022/10/16 05:40:41;;;;;;;10.13;5.50;;;;;;;;;;5049564;28;20206;-79
2022/10/16 05:43:09;;;;;;;7.13;5.23;;;;;;;;;;5050007;28;20201;-78
2022/10/16 05:45:36;;;;;;;8.20;6.27;;;;;;;;;;5049981;28;20197;-79
2022/10/16 05:48:03;;;;;;;6.40;5.80;;;;;;;;;;5049975;28;20208;-79
2022/10/16 05:50:29;;;;;;;5.67;4.97;;;;;;;;;;5049374;28;20684;-79
2022/10/16 05:52:56;;;;;;;4.90;4.40;;;;;;;;;;5049604;28;20217;-78
2022/10/16 05:55:23;;;;;;;4.90;4.50;;;;;;;;;;5049530;28;20225;-80
2022/10/16 05:57:51;;;;;;;8.57;5.10;;;;;;;;;;5049865;28;20594;-81
2022/10/16 06:00:19;;;;;;;23.57;5.30;;;;;;;;;;5052885;28;20218;-78
2022/10/16 06:02:45;;;;;;;5.77;4.97;;;;;;;;;;5053510;28;20291;-77
2022/10/16 06:05:12;;;;;;;5.47;4.40;;;;;;;;;;5053188;28;20209;-77
2022/10/16 06:07:40;;;;;;;4.77;4.03;;;;;;;;;;5054012;28;20202;-77
2022/10/16 06:10:08;;;;;;;6.67;3.73;;;;;;;;;;5053178;28;20677;-77
2022/10/16 06:12:35;;;;;;;3.77;3.47;;;;;;;;;;5052372;28;20692;-78
2022/10/16 06:15:02;;;;;;;3.97;3.67;;;;;;;;;;5052452;28;20202;-78
2022/10/16 06:17:30;;;;;;;4.30;3.90;;;;;;;;;;5052079;28;20198;-86
2022/10/16 06:19:57;;;;;;;4.17;3.77;;;;;;;;;;5052291;28;20221;-78
2022/10/16 06:22:23;;;;;;;4.13;3.77;;;;;;;;;;5052614;28;20212;-78
2022/10/16 06:24:50;;;;;;;3.90;3.50;;;;;;;;;;5052240;28;20206;-78
2022/10/16 06:27:17;;;;;;;6.73;4.03;;;;;;;;;;5053186;28;20618;-78
2022/10/16 06:29:44;;;;;;;4.77;3.80;;;;;;;;;;5052633;28;20263;-78
2022/10/16 06:32:11;;;;;;;4.47;4.17;;;;;;;;;;5053034;28;20730;-78
2022/10/16 06:34:40;;;;;;;3.97;3.53;;;;;;;;;;5053119;28;20228;-78
2022/10/16 06:37:07;;;;;;;4.43;4.00;;;;;;;;;;5053161;28;20701;-78
2022/10/16 06:39:34;;;;;;;4.07;3.57;;;;;;;;;;5052567;28;20238;-78
2022/10/16 06:42:01;;;;;;;4.47;3.53;;;;;;;;;;5053175;28;20202;-78
2022/10/16 06:44:27;;;;;;;5.13;3.73;;;;;;;;;;5052584;28;20201;-78
2022/10/16 06:46:54;;;;;;;6.17;4.10;;;;;;;;;;5053286;28;20252;-78
2022/10/16 06:49:22;;;;;;;4.70;3.50;;;;;;;;;;5052864;28;20288;-79
2022/10/16 06:51:50;;;;;;;5.33;3.70;;;;;;;;;;5053010;28;20212;-79
2022/10/16 06:54:20;;;;;;;6.17;4.20;;;;;;;;;;5052706;28;20205;-78
2022/10/16 06:56:47;;;;;;;5.37;3.97;;;;;;;;;;5052514;28;20217;-78
2022/10/16 06:59:14;;;;;;;6.03;4.23;;;;;;;;;;5052002;28;20236;-79
2022/10/16 07:01:40;;;;;;;5.57;4.30;;;;;;;;;;5052529;28;20236;-78
2022/10/16 07:04:07;;;;;;;4.70;3.97;;;;;;;;;;5052436;28;20213;-79
2022/10/16 07:06:34;;;;;;;4.97;3.90;;;;;;;;;;5052750;28;20335;-79
2022/10/16 07:09:05;;;;;;;5.87;4.23;;;;;;;;;;5052329;28;20221;-79
2022/10/16 07:11:35;;;;;;;5.30;4.67;;;;;;;;;;5051418;28;20208;-78
2022/10/16 07:14:01;;;;;;;6.67;4.43;;;;;;;;;;5052333;28;20256;-79
2022/10/16 07:16:30;;;;;;;6.10;5.20;;;;;;;;;;5052172;28;20238;-79
2022/10/16 07:18:58;;;;;;;6.93;5.40;;;;;;;;;;5034700;28;20241;-79
2022/10/16 07:21:28;;;;;;;5.23;4.60;;;;;;;;;;5031823;28;20208;-79
2022/10/16 07:23:56;;;;;;;6.13;5.33;;;;;;;;;;5032388;28;20288;-79
2022/10/16 07:26:25;;;;;;;8.47;4.87;;;;;;;;;;5031960;28;20974;-81
2022/10/16 07:28:52;;;;;;;6.50;5.87;;;;;;;;;;5049397;28;20563;-80
2022/10/16 07:31:20;;;;;;;8.17;6.20;;;;;;;;;;5052054;28;20232;-78
2022/10/16 07:33:48;;;;;;;8.47;6.63;;;;;;;;;;5051732;28;20774;-78
2022/10/16 07:36:15;;;;;;;8.50;6.20;;;;;;;;;;5051828;28;20259;-78
2022/10/16 07:38:42;;;;;;;8.47;5.90;;;;;;;;;;5051634;28;20640;-78
2022/10/16 07:41:11;;;;;;;7.77;6.13;;;;;;;;;;5051893;28;20237;-78
2022/10/16 07:43:39;;;;;;;8.23;6.60;;;;;;;;;;5051830;28;20204;-78
2022/10/16 07:46:06;;;;;;;7.20;6.50;;;;;;;;;;5051551;28;20202;-78
2022/10/16 07:48:34;;;;;;;10.90;6.57;;;;;;;;;;5051439;28;20268;-78
2022/10/16 07:51:02;;;;;;;8.37;6.93;;;;;;;;;;5051675;28;20677;-79
2022/10/16 07:53:29;;;;;;;12.10;6.60;;;;;;;;;;5051423;28;20292;-78
2022/10/16 07:55:58;;;;;;;8.43;6.97;;;;;;;;;;5051427;28;20212;-78
2022/10/16 07:58:25;;;;;;;8.23;7.43;;;;;;;;;;5051675;28;20233;-78
2022/10/16 08:00:53;;;;;;;8.73;7.63;;;;;;;;;;5051429;28;20229;-79
2022/10/16 08:03:20;;;;;;;9.23;6.83;;;;;;;;;;5051468;28;20208;-78
2022/10/16 08:05:47;;;;;;;8.53;7.57;;;;;;;;;;5051111;28;20201;-79
2022/10/16 08:08:14;;;;;;;10.00;7.40;;;;;;;;;;5051619;28;20213;-78
2022/10/16 08:10:41;;;;;;;11.57;7.03;;;;;;;;;;5045092;28;20240;-79
2022/10/16 08:13:08;;;;;;;7.90;7.10;;;;;;;;;;5044981;28;20207;-79
2022/10/16 08:15:35;;;;;;;7.70;6.80;;;;;;;;;;5048630;28;20201;-79
2022/10/16 08:18:06;;;;;;;8.00;6.63;;;;;;;;;;5050649;28;20210;-79
2022/10/16 08:20:34;;;;;;;6.50;5.90;;;;;;;;;;5050286;28;20233;-79
2022/10/16 08:23:01;;;;;;;6.80;5.90;;;;;;;;;;5050290;28;20214;-78
2022/10/16 08:25:28;;;;;;;11.13;7.03;;;;;;;;;;5050790;28;20209;-79
2022/10/16 08:27:55;;;;;;;7.13;6.07;;;;;;;;;;5050707;28;20201;-79
2022/10/16 08:30:23;;;;;;;7.27;6.17;;;;;;;;;;5050826;28;20212;-79
2022/10/16 08:32:50;;;;;;;5.87;5.30;;;;;;;;;;5050771;28;20594;-79
2022/10/16 08:35:18;;;;;;;7.37;5.60;;;;;;;;;;5050860;28;20209;-78
2022/10/16 08:37:45;;;;;;;6.07;5.37;;;;;;;;;;5050570;28;20198;-78
2022/10/16 08:40:19;;;;;;;8.27;6.60;;;;;;;;;;5050772;28;20233;-80
2022/10/16 08:42:55;;;;;;;7.80;5.10;;;;;;;;;;5050530;28;20206;-79
2022/10/16 08:45:31;;;;;;;7.57;5.73;;;;;;;;;;5050578;28;20203;-78
2022/10/16 08:48:05;;;;;;;6.00;5.40;;;;;;;;;;5050667;28;20205;-78
2022/10/16 08:50:36;;;;;;;6.67;5.37;;;;;;;;;;5050436;28;20199;-78
2022/10/16 08:53:05;;;;;;;6.93;5.40;;;;;;;;;;5050622;28;20223;-78
2022/10/16 08:55:36;;;;;;;6.43;5.53;;;;;;;;;;5050217;28;20197;-78
2022/10/16 08:58:02;;;;;;;4.43;4.00;;;;;;;;;;5050297;28;20708;-78
2022/10/16 09:00:29;;;;;;;5.83;4.70;;;;;;;;;;5049933;28;20677;-78
2022/10/16 09:03:03;;;;;;;5.03;4.23;;;;;;;;;;5050903;28;20280;-78
2022/10/16 09:05:46;;;;;;;6.10;4.10;;;;;;;;;;5050105;28;20280;-78
2022/10/16 09:08:19;;;;;;;6.30;4.33;;;;;;;;;;5050222;28;20209;-78
2022/10/16 09:10:55;;;;;;;4.27;3.93;;;;;;;;;;5036495;28;20658;-78
2022/10/16 09:13:27;;;;;;;5.63;4.50;;;;;;;;;;5050312;28;20258;-79
2022/10/16 09:15:58;;;;;;;6.63;4.43;;;;;;;;;;5036960;28;20216;-78
2022/10/16 09:18:27;;;;;;;5.93;4.57;;;;;;;;;;5050179;28;20676;-78
2022/10/16 09:21:00;;;;;;;5.93;5.37;;;;;;;;;;5049953;28;20226;-79
2022/10/16 09:23:28;;;;;;;5.50;4.00;;;;;;;;;;5050569;28;20210;-78
2022/10/16 09:25:56;;;;;;;4.57;3.70;;;;;;;;;;5050060;28;20592;-78
2022/10/16 09:28:23;;;;;;;4.47;4.07;;;;;;;;;;5050122;28;20206;-79
2022/10/16 09:30:50;;;;;;;4.47;3.73;;;;;;;;;;5049224;28;20206;-79
2022/10/16 09:33:18;;;;;;;3.73;3.23;;;;;;;;;;5043961;28;20766;-78
2022/10/16 09:35:47;;;;;;;4.27;3.97;;;;;;;;;;5053611;28;20208;-79
2022/10/16 09:38:25;;;;;;;5.17;3.63;;;;;;;;;;5054355;28;20210;-78
2022/10/16 09:40:54;;;;;;;3.67;3.37;;;;;;;;;;5053897;28;20225;-79
2022/10/16 09:43:28;;;;;;;3.47;3.17;;;;;;;;;;5054441;28;20208;-79
2022/10/16 09:45:56;;;;;;;3.43;3.13;;;;;;;;;;5053657;28;20208;-78
2022/10/16 09:48:23;;;;;;;3.73;3.00;;;;;;;;;;5054060;28;20283;-79
2022/10/16 09:50:57;;;;;;;3.97;3.53;;;;;;;;;;5053879;28;20601;-79
2022/10/16 09:53:27;;;;;;;3.10;2.70;;;;;;;;;;5053628;28;20209;-78
2022/10/16 09:55:54;;;;;;;3.00;2.63;;;;;;;;;;5053538;28;20351;-79
2022/10/16 09:58:23;;;;;;;13.60;4.03;;;;;;;;;;5053714;28;20687;-79
2022/10/16 10:00:50;;;;;;;2.97;2.77;;;;;;;;;;5053115;28;20221;-78
2022/10/16 10:03:37;;;;;;;4.27;3.10;;;;;;;;;;5053608;28;20565;-80
2022/10/16 10:06:16;;;;;;;2.57;2.37;;;;;;;;;;5053572;28;20241;-79
2022/10/16 10:08:55;;;;;;;3.23;2.60;;;;;;;;;;5052859;28;20201;-79
2022/10/16 10:11:40;;;;;;;3.47;2.47;;;;;;;;;;5053534;28;20209;-79
2022/10/16 10:14:07;;;;;;;3.90;2.37;;;;;;;;;;5053530;28;20217;-78
2022/10/16 10:16:35;;;;;;;3.63;2.57;;;;;;;;;;5051669;28;20707;-78
2022/10/16 10:19:02;;;;;;;2.67;2.10;;;;;;;;;;5052318;28;20703;-78
2022/10/16 10:21:29;;;;;;;4.27;2.30;;;;;;;;;;5053157;28;20817;-78
2022/10/16 10:24:00;;;;;;;2.83;2.40;;;;;;;;;;5053436;28;20563;-79
2022/10/16 10:26:29;;;;;;;3.00;2.10;;;;;;;;;;5053112;28;20631;-79
2022/10/16 10:29:03;;;;;;;2.50;2.30;;;;;;;;;;5052986;28;20198;-78
2022/10/16 10:31:35;;;;;;;2.30;2.10;;;;;;;;;;5053243;28;20201;-79
2022/10/16 10:34:10;;;;;;;2.50;2.30;;;;;;;;;;5053057;28;20194;-78
2022/10/16 10:36:38;;;;;;;3.83;2.10;;;;;;;;;;5052940;28;20201;-78
2022/10/16 10:39:12;;;;;;;4.37;2.60;;;;;;;;;;5052878;28;20256;-78
2022/10/16 10:42:08;;;;;;;3.50;2.63;;;;;;;;;;5053128;28;20230;-78
2022/10/16 10:44:58;;;;;;;3.37;2.10;;;;;;;;;;5052945;28;20575;-78
2022/10/16 10:47:34;;;;;;;3.77;2.83;;;;;;;;;;5052316;28;20289;-78
2022/10/16 10:50:08;;;;;;;2.77;2.47;;;;;;;;;;5052385;28;20652;-78
2022/10/16 10:52:42;;;;;;;2.10;1.90;;;;;;;;;;5052545;28;20205;-78
2022/10/16 10:55:20;;;;;;;2.80;2.20;;;;;;;;;;5052481;28;20255;-78
2022/10/16 10:57:58;;;;;;;3.50;2.00;;;;;;;;;;5052891;28;20614;-78
2022/10/16 11:00:42;;;;;;;5.13;3.17;;;;;;;;;;5051856;28;20224;-78
2022/10/16 11:03:21;;;;;;;1.90;1.80;;;;;;;;;;5052734;28;20209;-78
2022/10/16 11:05:50;;;;;;;2.30;2.10;;;;;;;;;;5052389;28;20650;-78
2022/10/16 11:08:21;;;;;;;2.87;2.17;;;;;;;;;;5052521;28;20680;-78
2022/10/16 11:10:53;;;;;;;3.60;2.40;;;;;;;;;;5051741;28;20205;-78
2022/10/16 11:13:31;;;;;;;3.70;2.07;;;;;;;;;;5052256;28;20201;-78
2022/10/16 11:16:00;;;;;;;1.87;1.77;;;;;;;;;;5039292;28;20676;-78
2022/10/16 11:18:34;;;;;;;3.63;2.53;;;;;;;;;;5052296;28;20213;-78
2022/10/16 11:21:05;;;;;;;2.17;1.63;;;;;;;;;;5051774;28;20224;-78
2022/10/16 11:23:37;;;;;;;2.63;2.00;;;;;;;;;;5052690;28;20229;-78
2022/10/16 11:26:07;;;;;;;2.17;1.80;;;;;;;;;;5037990;28;20569;-78
2022/10/16 11:28:36;;;;;;;2.23;1.93;;;;;;;;;;5052508;28;20284;-78
2022/10/16 11:31:09;;;;;;;2.20;2.00;;;;;;;;;;5051799;28;20210;-78
2022/10/16 11:33:40;;;;;;;2.80;2.20;;;;;;;;;;5050806;28;20255;-78
2022/10/16 11:36:12;;;;;;;2.07;1.83;;;;;;;;;;5050611;28;20630;-79
2022/10/16 11:38:44;;;;;;;2.50;2.30;;;;;;;;;;5050624;28;20276;-77
2022/10/16 11:41:21;;;;;;;4.07;2.10;;;;;;;;;;5050673;28;20222;-78
2022/10/16 11:43:57;;;;;;;2.27;1.80;;;;;;;;;;5050473;28;20197;-78
2022/10/16 11:46:25;;;;;;;2.83;1.90;;;;;;;;;;5050802;28;20201;-78
2022/10/16 11:48:55;;;;;;;3.03;1.73;;;;;;;;;;5049976;28;20213;-80
2022/10/16 11:51:26;;;;;;;3.53;1.83;;;;;;;;;;5050551;28;20197;-80
2022/10/16 11:53:58;;;;;;;2.20;2.00;;;;;;;;;;5050789;28;20229;-81
2022/10/16 11:56:26;;;;;;;3.00;1.90;;;;;;;;;;5050085;28;20206;-80
2022/10/16 11:58:57;;;;;;;3.33;2.40;;;;;;;;;;5048845;28;20202;-80
2022/10/16 12:01:31;;;;;;;2.37;2.17;;;;;;;;;;5036145;28;20760;-81
2022/10/16 12:04:06;;;;;;;2.13;1.80;;;;;;;;;;5049987;28;20213;-81
2022/10/16 12:06:35;;;;;;;2.60;2.10;;;;;;;;;;5051437;28;20251;-81
2022/10/16 12:09:02;;;;;;;3.17;2.63;;;;;;;;;;5051197;28;20201;-81
2022/10/16 12:11:37;;;;;;;3.60;2.43;;;;;;;;;;5051343;28;20655;-80
2022/10/16 12:14:32;;;;;;;3.97;2.33;;;;;;;;;;5050936;28;20599;-79
2022/10/16 12:17:01;;;;;;;2.63;2.13;;;;;;;;;;5035749;28;20692;-80
2022/10/16 12:19:29;;;;;;;1.80;1.70;;;;;;;;;;5051088;28;20212;-80
2022/10/16 12:21:57;;;;;;;2.90;2.10;;;;;;;;;;5050711;28;20361;-80
2022/10/16 12:24:32;;;;;;;2.80;1.77;;;;;;;;;;5050577;28;20251;-80
2022/10/16 12:27:01;;;;;;;3.53;2.07;;;;;;;;;;5051277;28;20700;-81
2022/10/16 12:29:35;;;;;;;2.37;2.17;;;;;;;;;;5050675;28;20197;-80
2022/10/16 12:32:03;;;;;;;1.90;1.80;;;;;;;;;;5051105;28;20213;-80
2022/10/16 12:34:33;;;;;;;3.73;1.83;;;;;;;;;;5050626;28;20206;-80
2022/10/16 12:37:10;;;;;;;1.93;1.80;;;;;;;;;;5050789;28;20704;-80
2022/10/16 12:39:45;;;;;;;2.57;2.33;;;;;;;;;;5050551;28;20202;-80
2022/10/16 12:42:31;;;;;;;1.80;1.60;;;;;;;;;;5050589;28;20251;-79
2022/10/16 12:44:58;;;;;;;2.37;2.17;;;;;;;;;;5050873;28;20201;-79
2022/10/16 12:47:38;;;;;;;2.10;1.73;;;;;;;;;;5050523;28;20263;-81
2022/10/16 12:50:25;;;;;;;4.40;2.10;;;;;;;;;;5050731;28;20195;-80
2022/10/16 12:52:52;;;;;;;2.30;2.00;;;;;;;;;;5050649;28;20205;-80
2022/10/16 12:55:20;;;;;;;2.60;2.40;;;;;;;;;;5050841;28;20202;-81
2022/10/16 12:58:03;;;;;;;4.37;2.10;;;;;;;;;;5050437;28;20208;-80
2022/10/16 13:00:33;;;;;;;4.17;2.43;;;;;;;;;;5050558;28;20221;-81
2022/10/16 13:03:24;;;;;;;2.20;2.00;;;;;;;;;;5050373;28;20233;-80
2022/10/16 13:06:01;;;;;;;2.30;2.10;;;;;;;;;;5049935;28;20201;-79
2022/10/16 13:08:48;;;;;;;2.53;2.33;;;;;;;;;;5049727;28;20212;-80
2022/10/16 13:11:21;;;;;;;3.03;2.10;;;;;;;;;;5050381;28;20640;-80
2022/10/16 13:14:08;;;;;;;2.40;2.20;;;;;;;;;;5049946;28;20668;-81
2022/10/16 13:16:51;;;;;;;2.20;2.07;;;;;;;;;;5050513;28;20239;-80
2022/10/16 13:19:26;;;;;;;3.03;2.33;;;;;;;;;;5050754;28;20297;-77
2022/10/16 13:21:59;;;;;;;3.13;2.27;;;;;;;;;;5050053;28;20726;-79
2022/10/16 13:24:39;;;;;;;2.30;2.07;;;;;;;;;;5049932;28;20205;-80
2022/10/16 13:27:12;;;;;;;3.00;2.17;;;;;;;;;;5050142;28;20209;-79
2022/10/16 13:29:42;;;;;;;2.07;1.80;;;;;;;;;;5050652;28;20205;-81
2022/10/16 13:32:12;;;;;;;2.50;2.30;;;;;;;;;;5050895;28;20206;-81
2022/10/16 13:34:45;;;;;;;3.23;2.33;;;;;;;;;;5050156;28;20259;-81
2022/10/16 13:37:18;;;;;;;4.60;2.27;;;;;;;;;;5050560;28;20197;-81
2022/10/16 13:39:45;;;;;;;2.10;1.87;;;;;;;;;;5050070;28;20237;-81
2022/10/16 13:42:13;;;;;;;2.33;2.13;;;;;;;;;;5050090;28;20228;-81
2022/10/16 13:44:44;;;;;;;2.63;1.87;;;;;;;;;;5050108;28;20217;-81
2022/10/16 13:47:18;;;;;;;2.33;2.13;;;;;;;;;;5049871;28;20676;-81
2022/10/16 13:49:46;;;;;;;3.57;2.20;;;;;;;;;;5049352;28;20695;-81
2022/10/16 13:52:19;;;;;;;2.93;2.20;;;;;;;;;;5050290;28;20646;-81
2022/10/16 13:54:46;;;;;;;2.43;2.13;;;;;;;;;;5049346;28;20598;-81
2022/10/16 13:57:14;;;;;;;3.67;2.20;;;;;;;;;;5050053;28;20206;-80
2022/10/16 13:59:43;;;;;;;3.47;2.40;;;;;;;;;;5049939;28;20213;-81
2022/10/16 14:02:19;;;;;;;2.37;2.17;;;;;;;;;;5049752;28;20236;-81
2022/10/16 14:04:46;;;;;;;2.57;2.37;;;;;;;;;;5048139;28;20220;-80
2022/10/16 14:07:16;;;;;;;3.30;2.40;;;;;;;;;;5049176;28;20210;-81
2022/10/16 14:09:44;;;;;;;2.07;1.93;;;;;;;;;;5049990;28;20209;-81
2022/10/16 14:12:12;;;;;;;3.20;2.43;;;;;;;;;;5050146;28;20194;-85
2022/10/16 14:14:44;;;;;;;2.57;2.37;;;;;;;;;;5049422;28;20202;-79
2022/10/16 14:17:14;;;;;;;5.43;1.80;;;;;;;;;;5047708;28;20194;-79
2022/10/16 14:19:41;;;;;;;6.50;2.90;;;;;;;;;;5049710;28;20209;-79
2022/10/16 14:22:24;;;;;;;2.20;2.00;;;;;;;;;;5052912;28;20297;-80
2022/10/16 14:24:51;;;;;;;3.23;2.17;;;;;;;;;;5052216;28;20201;-79
2022/10/16 14:27:30;;;;;;;17.27;5.30;;;;;;;;;;5052516;28;20202;-79
2022/10/16 14:30:17;;;;;;;24.57;5.73;;;;;;;;;;5052368;28;20292;-78
2022/10/16 14:32:55;;;;;;;2.30;2.10;;;;;;;;;;5052747;28;20202;-79
2022/10/16 14:35:31;;;;;;;9.93;2.43;;;;;;;;;;5052483;28;20212;-79
2022/10/16 14:37:59;;;;;;;9.40;2.80;;;;;;;;;;5053144;28;20202;-79
2022/10/16 14:40:27;;;;;;;2.60;2.03;;;;;;;;;;5052068;28;20288;-79
2022/10/16 14:42:55;;;;;;;2.37;2.07;;;;;;;;;;5052357;28;20218;-79
2022/10/16 14:45:25;;;;;;;5.10;3.00;;;;;;;;;;5053114;28;20592;-79
2022/10/16 14:47:55;;;;;;;4.60;2.40;;;;;;;;;;5052875;28;20684;-79
2022/10/16 14:50:22;;;;;;;2.30;2.10;;;;;;;;;;5038984;28;20627;-79
2022/10/16 14:52:49;;;;;;;2.30;2.10;;;;;;;;;;5052650;28;20198;-80
2022/10/16 14:55:16;;;;;;;3.10;2.90;;;;;;;;;;5052784;28;20259;-79
2022/10/16 14:57:44;;;;;;;3.80;2.00;;;;;;;;;;5052929;28;20202;-79